Time,TemperatureF,DewpointF,PressureIn,WindDirection,WindDirectionDegrees,WindSpeedMPH,WindSpeedGustMPH,Humidity,HourlyPrecipIn,Conditions,Clouds,dailyrainin,SoftwareType,DateUTC
2013-05-25 00:00:00,38.7,37.9,30.23,North,-999,0.0,0.0,97,0.00,,,0.00,pywws,2013-05-24 23:00:00,
2013-05-25 00:05:00,38.3,37.8,30.23,North,-999,0.0,0.0,98,0.00,,,0.00,pywws,2013-05-24 23:05:00,
2013-05-25 00:10:00,38.3,37.8,30.23,North,-999,0.0,0.0,98,0.00,,,0.00,pywws,2013-05-24 23:10:00,
2013-05-25 00:15:00,38.1,37.6,30.23,North,-999,0.0,0.0,98,0.00,,,0.00,pywws,2013-05-24 23:15:00,
2013-05-25 00:20:00,37.9,37.7,30.23,North,-999,0.0,0.0,99,0.00,,,0.00,pywws,2013-05-24 23:20:00,
2013-05-25 00:25:00,37.8,37.5,30.23,North,-999,0.0,0.0,99,0.00,,,0.00,pywws,2013-05-24 23:25:00,
2013-05-25 00:30:00,37.8,37.5,30.23,North,-999,0.0,0.7,99,0.00,,,0.00,pywws,2013-05-24 23:30:00,
2013-05-25 00:35:00,37.4,37.1,30.23,North,-999,0.0,0.0,99,0.00,,,0.00,pywws,2013-05-24 23:35:00,
2013-05-25 00:40:00,37.4,37.1,30.23,North,-999,0.0,0.0,99,0.00,,,0.00,pywws,2013-05-24 23:40:00,
2013-05-25 00:45:00,37.2,37.0,30.24,North,-999,0.0,0.0,99,0.00,,,0.00,pywws,2013-05-24 23:45:00,
2013-05-25 00:50:00,37.2,37.0,30.23,North,-999,0.0,0.0,99,0.00,,,0.00,pywws,2013-05-24 23:50:00,
2013-05-25 01:00:00,37.2,37.0,30.23,North,-999,0.0,0.0,99,0.00,,,0.00,pywws,2013-05-25 00:00:00,
2013-05-25 01:05:00,36.9,36.6,30.23,North,-999,0.0,0.0,99,0.00,,,0.00,pywws,2013-05-25 00:05:00,
2013-05-25 01:10:00,36.9,36.6,30.23,North,-999,0.0,0.7,99,0.00,,,0.00,pywws,2013-05-25 00:10:00,
2013-05-25 01:15:00,36.5,36.2,30.23,North,-999,0.0,0.0,99,0.00,,,0.00,pywws,2013-05-25 00:15:00,
2013-05-25 01:20:00,36.5,36.2,30.23,North,-999,0.0,0.0,99,0.00,,,0.00,pywws,2013-05-25 00:20:00,
2013-05-25 01:25:00,36.5,36.2,30.23,North,-999,0.0,0.0,99,0.00,,,0.00,pywws,2013-05-25 00:25:00,
2013-05-25 01:30:00,36.7,36.4,30.23,North,-999,0.0,0.0,99,0.00,,,0.00,pywws,2013-05-25 00:30:00,
2013-05-25 01:35:00,36.7,36.4,30.22,North,-999,0.0,0.7,99,0.00,,,0.00,pywws,2013-05-25 00:35:00,
2013-05-25 01:40:00,36.9,36.6,30.23,North,-999,0.0,0.0,99,0.00,,,0.00,pywws,2013-05-25 00:40:00,
2013-05-25 01:45:00,36.9,36.6,30.23,North,-999,0.0,0.0,99,0.00,,,0.00,pywws,2013-05-25 00:45:00,
2013-05-25 01:50:00,36.9,36.6,30.23,North,-999,0.0,0.0,99,0.00,,,0.00,pywws,2013-05-25 00:50:00,
2013-05-25 02:00:00,37.0,36.8,30.23,North,-999,0.0,0.0,99,0.00,,,0.00,pywws,2013-05-25 01:00:00,
2013-05-25 02:05:00,36.9,36.6,30.23,North,-999,0.0,0.0,99,0.00,,,0.00,pywws,2013-05-25 01:05:00,
2013-05-25 02:10:00,37.2,37.0,30.23,North,-999,0.0,0.7,99,0.00,,,0.00,pywws,2013-05-25 01:10:00,
2013-05-25 02:15:00,37.4,37.1,30.22,North,-999,0.0,1.6,99,0.00,,,0.00,pywws,2013-05-25 01:15:00,
2013-05-25 02:20:00,37.6,37.3,30.23,North,-999,0.0,0.7,99,0.00,,,0.00,pywws,2013-05-25 01:20:00,
2013-05-25 02:25:00,37.6,37.3,30.22,North,-999,0.0,0.0,99,0.00,,,0.00,pywws,2013-05-25 01:25:00,
2013-05-25 02:30:00,37.6,37.3,30.22,North,-999,0.0,0.7,99,0.00,,,0.00,pywws,2013-05-25 01:30:00,
2013-05-25 02:35:00,37.6,37.3,30.22,North,-999,0.0,0.0,99,0.00,,,0.00,pywws,2013-05-25 01:35:00,
2013-05-25 02:40:00,37.8,37.5,30.22,North,-999,0.0,0.0,99,0.00,,,0.00,pywws,2013-05-25 01:40:00,
2013-05-25 02:45:00,37.8,37.5,30.23,North,-999,0.0,0.0,99,0.00,,,0.00,pywws,2013-05-25 01:45:00,
2013-05-25 02:50:00,37.6,37.3,30.23,North,-999,0.0,0.0,99,0.00,,,0.00,pywws,2013-05-25 01:50:00,
2013-05-25 03:00:00,37.6,37.3,30.22,North,-999,0.0,0.0,99,0.00,,,0.00,pywws,2013-05-25 02:00:00,
2013-05-25 03:05:00,37.6,37.3,30.22,North,-999,0.0,0.7,99,0.00,,,0.00,pywws,2013-05-25 02:05:00,
2013-05-25 03:10:00,37.6,37.3,30.22,North,-999,0.0,1.6,99,0.00,,,0.00,pywws,2013-05-25 02:10:00,
2013-05-25 03:15:00,37.6,37.3,30.22,North,-999,0.0,0.7,99,0.00,,,0.00,pywws,2013-05-25 02:15:00,
2013-05-25 03:20:00,37.6,37.3,30.22,North,-999,0.0,0.7,99,0.00,,,0.00,pywws,2013-05-25 02:20:00,
2013-05-25 03:25:00,37.6,37.3,30.22,North,-999,0.0,1.6,99,0.00,,,0.00,pywws,2013-05-25 02:25:00,
2013-05-25 03:30:00,37.6,37.3,30.22,NW,315,0.7,1.6,99,0.00,,,0.00,pywws,2013-05-25 02:30:00,
2013-05-25 03:35:00,37.6,37.3,30.22,NW,315,0.7,1.6,99,0.00,,,0.00,pywws,2013-05-25 02:35:00,
2013-05-25 03:40:00,37.4,37.1,30.22,North,-999,0.0,1.6,99,0.00,,,0.00,pywws,2013-05-25 02:40:00,
2013-05-25 03:45:00,37.2,37.0,30.22,North,-999,0.0,0.7,99,0.00,,,0.00,pywws,2013-05-25 02:45:00,
2013-05-25 03:50:00,37.0,36.8,30.22,North,-999,0.0,0.0,99,0.00,,,0.00,pywws,2013-05-25 02:50:00,
2013-05-25 04:00:00,36.9,36.6,30.22,North,-999,0.0,0.0,99,0.00,,,0.00,pywws,2013-05-25 03:00:00,
2013-05-25 04:05:00,36.5,36.2,30.21,North,-999,0.0,0.0,99,0.00,,,0.00,pywws,2013-05-25 03:05:00,
2013-05-25 04:10:00,36.1,35.9,30.21,North,-999,0.0,1.6,99,0.00,,,0.00,pywws,2013-05-25 03:10:00,
2013-05-25 04:15:00,36.1,35.9,30.21,North,-999,0.0,0.0,99,0.00,,,0.00,pywws,2013-05-25 03:15:00,
2013-05-25 04:20:00,36.3,36.1,30.22,North,-999,0.0,0.7,99,0.00,,,0.00,pywws,2013-05-25 03:20:00,
2013-05-25 04:25:00,36.1,35.9,30.21,NW,315,0.7,1.6,99,0.00,,,0.00,pywws,2013-05-25 03:25:00,
2013-05-25 04:30:00,36.3,36.1,30.21,North,-999,0.0,0.7,99,0.00,,,0.00,pywws,2013-05-25 03:30:00,
2013-05-25 04:35:00,36.3,36.1,30.21,North,-999,0.0,2.2,99,0.00,,,0.00,pywws,2013-05-25 03:35:00,
2013-05-25 04:40:00,36.5,36.2,30.21,North,-999,0.0,0.7,99,0.00,,,0.00,pywws,2013-05-25 03:40:00,
2013-05-25 04:45:00,36.7,36.4,30.21,North,-999,0.0,1.6,99,0.00,,,0.00,pywws,2013-05-25 03:45:00,
2013-05-25 04:50:00,36.7,36.4,30.21,North,-999,0.0,1.6,99,0.00,,,0.00,pywws,2013-05-25 03:50:00,
2013-05-25 05:00:00,36.7,36.4,30.21,North,0,0.7,2.2,99,0.00,,,0.00,pywws,2013-05-25 04:00:00,
2013-05-25 05:05:00,37.2,37.0,30.21,North,-999,0.0,1.6,99,0.00,,,0.00,pywws,2013-05-25 04:05:00,
2013-05-25 05:10:00,37.6,37.3,30.22,NW,315,0.7,1.6,99,0.00,,,0.00,pywws,2013-05-25 04:10:00,
2013-05-25 05:15:00,37.8,37.5,30.21,NW,315,0.7,2.2,99,0.00,,,0.00,pywws,2013-05-25 04:15:00,
2013-05-25 05:20:00,37.9,37.4,30.21,NW,315,0.7,2.2,98,0.00,,,0.00,pywws,2013-05-25 04:20:00,
2013-05-25 05:25:00,38.3,37.5,30.20,NW,315,0.7,2.2,97,0.00,,,0.00,pywws,2013-05-25 04:25:00,
2013-05-25 05:30:00,38.5,37.4,30.21,North,-999,0.0,1.6,96,0.00,,,0.00,pywws,2013-05-25 04:30:00,
2013-05-25 05:35:00,38.8,37.8,30.21,North,-999,0.0,0.0,96,0.00,,,0.00,pywws,2013-05-25 04:35:00,
2013-05-25 05:40:00,40.1,39.6,30.20,North,-999,0.0,0.7,98,0.00,,,0.00,pywws,2013-05-25 04:40:00,
2013-05-25 05:45:00,41.4,40.6,30.21,NW,315,0.7,2.2,97,0.00,,,0.00,pywws,2013-05-25 04:45:00,
2013-05-25 05:50:00,42.4,40.8,30.21,North,-999,0.0,0.7,94,0.00,,,0.00,pywws,2013-05-25 04:50:00,
2013-05-25 06:00:00,43.3,41.7,30.21,North,-999,0.0,0.0,94,0.00,,,0.00,pywws,2013-05-25 05:00:00,
2013-05-25 06:05:00,45.7,43.2,30.20,North,-999,0.0,1.6,91,0.00,,,0.00,pywws,2013-05-25 05:05:00,
2013-05-25 06:10:00,46.4,42.1,30.20,North,-999,0.0,1.6,85,0.00,,,0.00,pywws,2013-05-25 05:10:00,
2013-05-25 06:15:00,46.9,41.7,30.20,North,0,0.7,1.6,82,0.00,,,0.00,pywws,2013-05-25 05:15:00,
2013-05-25 06:20:00,47.3,41.4,30.20,North,0,0.7,2.2,80,0.00,,,0.00,pywws,2013-05-25 05:20:00,
2013-05-25 06:25:00,48.0,42.1,30.20,North,-999,0.0,1.6,80,0.00,,,0.00,pywws,2013-05-25 05:25:00,
2013-05-25 06:30:00,48.9,42.0,30.20,NW,315,0.7,2.2,77,0.00,,,0.00,pywws,2013-05-25 05:30:00,
2013-05-25 06:35:00,49.1,41.5,30.20,NW,315,0.7,2.2,75,0.00,,,0.00,pywws,2013-05-25 05:35:00,
2013-05-25 06:40:00,49.5,41.9,30.20,NW,315,0.7,3.1,75,0.00,,,0.00,pywws,2013-05-25 05:40:00,
2013-05-25 06:45:00,50.4,43.4,30.20,North,-999,0.0,0.0,77,0.00,,,0.00,pywws,2013-05-25 05:45:00,
2013-05-25 06:50:00,52.3,45.3,30.20,North,-999,0.0,1.6,77,0.00,,,0.00,pywws,2013-05-25 05:50:00,
2013-05-25 07:00:00,53.2,44.8,30.20,North,-999,0.0,0.7,73,0.00,,,0.00,pywws,2013-05-25 06:00:00,
2013-05-25 07:05:00,54.9,45.3,30.20,North,-999,0.0,0.7,70,0.00,,,0.00,pywws,2013-05-25 06:05:00,
2013-05-25 07:10:00,55.6,45.6,30.20,North,-999,0.0,0.0,69,0.00,,,0.00,pywws,2013-05-25 06:10:00,
2013-05-25 07:15:00,55.9,44.7,30.20,North,-999,0.0,0.7,66,0.00,,,0.00,pywws,2013-05-25 06:15:00,
2013-05-25 07:20:00,56.7,45.4,30.20,North,-999,0.0,0.0,66,0.00,,,0.00,pywws,2013-05-25 06:20:00,
2013-05-25 07:25:00,57.7,45.2,30.20,North,-999,0.0,1.6,63,0.00,,,0.00,pywws,2013-05-25 06:25:00,
2013-05-25 07:30:00,58.8,46.3,30.21,North,-999,0.0,1.6,63,0.00,,,0.00,pywws,2013-05-25 06:30:00,
2013-05-25 07:35:00,59.2,46.2,30.20,North,-999,0.0,0.7,62,0.00,,,0.00,pywws,2013-05-25 06:35:00,
2013-05-25 07:40:00,59.7,46.2,30.20,North,-999,0.0,0.7,61,0.00,,,0.00,pywws,2013-05-25 06:40:00,
2013-05-25 07:45:00,60.6,46.7,30.20,North,-999,0.0,0.7,60,0.00,,,0.00,pywws,2013-05-25 06:45:00,
2013-05-25 07:50:00,61.3,46.9,30.20,North,-999,0.0,1.6,59,0.00,,,0.00,pywws,2013-05-25 06:50:00,
2013-05-25 08:00:00,61.2,46.7,30.20,North,-999,0.0,1.6,59,0.00,,,0.00,pywws,2013-05-25 07:00:00,
2013-05-25 08:05:00,60.8,46.4,30.20,North,-999,0.0,1.6,59,0.00,,,0.00,pywws,2013-05-25 07:05:00,
2013-05-25 08:10:00,60.4,46.0,30.20,North,-999,0.0,1.6,59,0.00,,,0.00,pywws,2013-05-25 07:10:00,
2013-05-25 08:15:00,60.6,46.7,30.20,NE,45,0.7,1.6,60,0.00,,,0.00,pywws,2013-05-25 07:15:00,
2013-05-25 08:20:00,60.6,46.7,30.20,North,-999,0.0,1.6,60,0.00,,,0.00,pywws,2013-05-25 07:20:00,
2013-05-25 08:25:00,61.2,46.7,30.20,North,0,0.7,2.2,59,0.00,,,0.00,pywws,2013-05-25 07:25:00,
2013-05-25 08:30:00,61.5,47.1,30.21,North,-999,0.0,2.2,59,0.00,,,0.00,pywws,2013-05-25 07:30:00,
2013-05-25 08:35:00,62.4,47.0,30.20,North,-999,0.0,0.7,57,0.00,,,0.00,pywws,2013-05-25 07:35:00,
2013-05-25 08:40:00,63.5,48.0,30.20,North,-999,0.0,1.6,57,0.00,,,0.00,pywws,2013-05-25 07:40:00,
2013-05-25 08:45:00,63.9,48.3,30.20,North,-999,0.0,1.6,57,0.00,,,0.00,pywws,2013-05-25 07:45:00,
2013-05-25 08:50:00,63.7,47.2,30.20,NE,45,0.7,1.6,55,0.00,,,0.00,pywws,2013-05-25 07:50:00,
2013-05-25 09:00:00,63.3,46.4,30.20,NE,45,0.7,1.6,54,0.00,,,0.00,pywws,2013-05-25 08:00:00,
2013-05-25 09:05:00,63.1,46.2,30.20,North,0,0.7,1.6,54,0.00,,,0.00,pywws,2013-05-25 08:05:00,
2013-05-25 09:10:00,63.5,47.5,30.20,East,90,0.7,1.6,56,0.00,,,0.00,pywws,2013-05-25 08:10:00,
2013-05-25 09:15:00,63.3,46.4,30.20,East,90,0.7,2.2,54,0.00,,,0.00,pywws,2013-05-25 08:15:00,
2013-05-25 09:20:00,63.1,46.2,30.20,North,-999,0.0,2.2,54,0.00,,,0.00,pywws,2013-05-25 08:20:00,
2013-05-25 09:25:00,63.0,45.1,30.20,North,0,0.7,1.6,52,0.00,,,0.00,pywws,2013-05-25 08:25:00,
2013-05-25 09:30:00,63.5,47.0,30.20,North,-999,0.0,1.6,55,0.00,,,0.00,pywws,2013-05-25 08:30:00,
2013-05-25 09:35:00,64.4,47.4,30.20,North,0,0.7,1.6,54,0.00,,,0.00,pywws,2013-05-25 08:35:00,
2013-05-25 09:40:00,65.1,47.6,30.20,North,0,0.7,1.6,53,0.00,,,0.00,pywws,2013-05-25 08:40:00,
2013-05-25 09:45:00,66.4,47.2,30.20,North,0,0.7,2.2,50,0.00,,,0.00,pywws,2013-05-25 08:45:00,
2013-05-25 09:50:00,66.6,48.4,30.20,North,0,0.7,2.2,52,0.00,,,0.00,pywws,2013-05-25 08:50:00,
2013-05-25 10:00:00,65.1,46.5,30.20,North,-999,0.0,1.6,51,0.00,,,0.00,pywws,2013-05-25 09:00:00,
2013-05-25 10:05:00,65.7,46.0,30.20,East,90,1.6,3.1,49,0.00,,,0.00,pywws,2013-05-25 09:05:00,
2013-05-25 10:10:00,65.8,47.7,30.20,North,-999,0.0,1.6,52,0.00,,,0.00,pywws,2013-05-25 09:10:00,
2013-05-25 10:15:00,66.0,47.4,30.20,North,-999,0.0,2.2,51,0.00,,,0.00,pywws,2013-05-25 09:15:00,
2013-05-25 10:20:00,66.0,46.3,30.20,North,-999,0.0,0.7,49,0.00,,,0.00,pywws,2013-05-25 09:20:00,
2013-05-25 10:25:00,67.1,47.8,30.19,North,-999,0.0,1.6,50,0.00,,,0.00,pywws,2013-05-25 09:25:00,
2013-05-25 10:30:00,68.4,49.0,30.19,North,-999,0.0,1.6,50,0.00,,,0.00,pywws,2013-05-25 09:30:00,
2013-05-25 10:35:00,68.9,48.4,30.20,SE,135,0.7,2.2,48,0.00,,,0.00,pywws,2013-05-25 09:35:00,
2013-05-25 10:40:00,68.7,47.7,30.19,North,-999,0.0,1.6,47,0.00,,,0.00,pywws,2013-05-25 09:40:00,
2013-05-25 10:45:00,69.3,45.2,30.19,North,-999,0.0,1.6,42,0.00,,,0.00,pywws,2013-05-25 09:45:00,
2013-05-25 10:50:00,68.5,48.1,30.19,North,-999,0.0,0.7,48,0.00,,,0.00,pywws,2013-05-25 09:50:00,
2013-05-25 11:00:00,68.7,45.9,30.19,South,180,0.7,1.6,44,0.00,,,0.00,pywws,2013-05-25 10:00:00,
2013-05-25 11:05:00,69.8,48.6,30.19,North,-999,0.0,0.7,47,0.00,,,0.00,pywws,2013-05-25 10:05:00,
2013-05-25 11:10:00,69.6,47.9,30.19,North,-999,0.0,3.1,46,0.00,,,0.00,pywws,2013-05-25 10:10:00,
2013-05-25 11:15:00,69.4,47.7,30.19,North,-999,0.0,1.6,46,0.00,,,0.00,pywws,2013-05-25 10:15:00,
2013-05-25 11:20:00,70.2,49.0,30.19,North,-999,0.0,0.7,47,0.00,,,0.00,pywws,2013-05-25 10:20:00,
2013-05-25 11:25:00,70.7,47.7,30.19,SE,135,0.7,1.6,44,0.00,,,0.00,pywws,2013-05-25 10:25:00,
2013-05-25 11:30:00,70.3,48.0,30.19,NW,315,0.7,3.1,45,0.00,,,0.00,pywws,2013-05-25 10:30:00,
2013-05-25 11:35:00,70.5,48.1,30.18,North,-999,0.0,1.6,45,0.00,,,0.00,pywws,2013-05-25 10:35:00,
2013-05-25 11:40:00,71.4,47.7,30.18,SE,135,0.7,2.2,43,0.00,,,0.00,pywws,2013-05-25 10:40:00,
2013-05-25 11:45:00,70.3,43.5,30.18,SE,135,1.6,3.1,38,0.00,,,0.00,pywws,2013-05-25 10:45:00,
2013-05-25 11:50:00,70.5,48.1,30.18,North,-999,0.0,1.6,45,0.00,,,0.00,pywws,2013-05-25 10:50:00,
2013-05-25 12:00:00,70.7,47.7,30.18,North,-999,0.0,1.6,44,0.00,,,0.00,pywws,2013-05-25 11:00:00,
2013-05-25 12:05:00,70.9,46.6,30.17,SSE,158,0.7,2.2,42,0.00,,,0.00,pywws,2013-05-25 11:05:00,
2013-05-25 12:10:00,71.4,46.5,30.17,NE,45,0.7,2.2,41,0.00,,,0.00,pywws,2013-05-25 11:10:00,
2013-05-25 12:15:00,71.4,48.4,30.17,SE,135,0.7,1.6,44,0.00,,,0.00,pywws,2013-05-25 11:15:00,
2013-05-25 12:20:00,71.6,47.9,30.17,East,90,0.7,3.8,43,0.00,,,0.00,pywws,2013-05-25 11:20:00,
2013-05-25 12:25:00,72.1,48.4,30.17,North,-999,0.0,1.6,43,0.00,,,0.00,pywws,2013-05-25 11:25:00,
2013-05-25 12:30:00,72.7,48.3,30.17,East,90,0.7,2.2,42,0.00,,,0.00,pywws,2013-05-25 11:30:00,
2013-05-25 12:35:00,72.3,49.2,30.17,North,-999,0.0,0.7,44,0.00,,,0.00,pywws,2013-05-25 11:35:00,
2013-05-25 12:40:00,73.4,48.3,30.17,SE,135,0.7,3.1,41,0.00,,,0.00,pywws,2013-05-25 11:40:00,
2013-05-25 12:45:00,73.9,50.0,30.16,SE,135,0.7,2.2,43,0.00,,,0.00,pywws,2013-05-25 11:45:00,
2013-05-25 12:50:00,74.1,48.2,30.16,NE,45,0.7,1.6,40,0.00,,,0.00,pywws,2013-05-25 11:50:00,
2013-05-25 13:00:00,73.8,48.6,30.16,North,0,0.7,1.6,41,0.00,,,0.00,pywws,2013-05-25 12:00:00,
2013-05-25 13:05:00,73.9,49.4,30.16,SE,135,1.6,3.1,42,0.00,,,0.00,pywws,2013-05-25 12:05:00,
2013-05-25 13:10:00,72.7,48.9,30.16,North,-999,0.0,1.6,43,0.00,,,0.00,pywws,2013-05-25 12:10:00,
2013-05-25 13:15:00,72.9,48.4,30.16,North,-999,0.0,2.2,42,0.00,,,0.00,pywws,2013-05-25 12:15:00,
2013-05-25 13:20:00,73.0,48.6,30.16,NE,45,0.7,1.6,42,0.00,,,0.00,pywws,2013-05-25 12:20:00,
2013-05-25 13:25:00,72.7,45.6,30.16,SE,135,1.6,2.2,38,0.00,,,0.00,pywws,2013-05-25 12:25:00,
2013-05-25 13:30:00,72.9,49.7,30.16,North,-999,0.0,0.7,44,0.00,,,0.00,pywws,2013-05-25 12:30:00,
2013-05-25 13:35:00,73.8,48.6,30.15,East,90,0.7,1.6,41,0.00,,,0.00,pywws,2013-05-25 12:35:00,
2013-05-25 13:40:00,73.0,48.6,30.15,North,-999,0.0,1.6,42,0.00,,,0.00,pywws,2013-05-25 12:40:00,
2013-05-25 13:45:00,72.7,48.3,30.15,NE,45,0.7,2.2,42,0.00,,,0.00,pywws,2013-05-25 12:45:00,
2013-05-25 13:50:00,73.6,48.4,30.15,NW,315,0.7,3.1,41,0.00,,,0.00,pywws,2013-05-25 12:50:00,
2013-05-25 14:00:00,73.4,50.1,30.14,North,-999,0.0,1.6,44,0.00,,,0.00,pywws,2013-05-25 13:00:00,
2013-05-25 14:05:00,74.1,48.9,30.13,North,-999,0.0,2.2,41,0.00,,,0.00,pywws,2013-05-25 13:05:00,
2013-05-25 14:10:00,73.8,47.9,30.14,NW,315,0.7,3.1,40,0.00,,,0.00,pywws,2013-05-25 13:10:00,
2013-05-25 14:15:00,73.6,48.4,30.14,East,90,0.7,3.1,41,0.00,,,0.00,pywws,2013-05-25 13:15:00,
2013-05-25 14:20:00,73.9,50.0,30.14,North,-999,0.0,1.6,43,0.00,,,0.00,pywws,2013-05-25 13:20:00,
2013-05-25 14:25:00,74.1,49.5,30.14,North,-999,0.0,1.6,42,0.00,,,0.00,pywws,2013-05-25 13:25:00,
2013-05-25 14:30:00,74.7,50.0,30.14,North,-999,0.0,1.6,42,0.00,,,0.00,pywws,2013-05-25 13:30:00,
2013-05-25 14:35:00,75.4,50.7,30.14,SE,135,0.7,2.2,42,0.00,,,0.00,pywws,2013-05-25 13:35:00,
2013-05-25 14:40:00,75.6,50.2,30.14,East,90,0.7,1.6,41,0.00,,,0.00,pywws,2013-05-25 13:40:00,
2013-05-25 14:45:00,74.5,49.2,30.14,NE,45,0.7,2.2,41,0.00,,,0.00,pywws,2013-05-25 13:45:00,
2013-05-25 14:50:00,73.8,49.9,30.13,North,-999,0.0,0.7,43,0.00,,,0.00,pywws,2013-05-25 13:50:00,
2013-05-25 15:00:00,74.7,48.7,30.13,North,-999,0.0,1.6,40,0.00,,,0.00,pywws,2013-05-25 14:00:00,
2013-05-25 15:05:00,74.8,49.5,30.13,East,90,1.6,3.1,41,0.00,,,0.00,pywws,2013-05-25 14:05:00,
2013-05-25 15:10:00,73.2,48.7,30.14,South,180,0.7,1.6,42,0.00,,,0.00,pywws,2013-05-25 14:10:00,
2013-05-25 15:15:00,73.9,50.6,30.13,North,-999,0.0,1.6,44,0.00,,,0.00,pywws,2013-05-25 14:15:00,
2013-05-25 15:20:00,73.6,49.1,30.13,North,-999,0.0,2.2,42,0.00,,,0.00,pywws,2013-05-25 14:20:00,
2013-05-25 15:25:00,73.9,50.0,30.13,North,-999,0.0,0.7,43,0.00,,,0.00,pywws,2013-05-25 14:25:00,
2013-05-25 15:30:00,75.2,49.2,30.13,North,-999,0.0,2.2,40,0.00,,,0.00,pywws,2013-05-25 14:30:00,
2013-05-25 15:35:00,74.3,47.0,30.13,NW,315,0.7,2.2,38,0.00,,,0.00,pywws,2013-05-25 14:35:00,
2013-05-25 15:40:00,73.8,47.9,30.13,SSW,202,1.6,2.2,40,0.00,,,0.00,pywws,2013-05-25 14:40:00,
2013-05-25 15:45:00,73.9,48.7,30.13,North,-999,0.0,1.6,41,0.00,,,0.00,pywws,2013-05-25 14:45:00,
2013-05-25 15:50:00,73.6,47.1,30.12,North,-999,0.0,0.7,39,0.00,,,0.00,pywws,2013-05-25 14:50:00,
2013-05-25 16:00:00,74.8,50.2,30.13,SE,135,0.7,2.2,42,0.00,,,0.00,pywws,2013-05-25 15:00:00,
2013-05-25 16:05:00,73.8,46.6,30.13,West,270,0.7,2.2,38,0.00,,,0.00,pywws,2013-05-25 15:05:00,
2013-05-25 16:10:00,73.4,46.9,30.13,West,270,0.7,1.6,39,0.00,,,0.00,pywws,2013-05-25 15:10:00,
2013-05-25 16:15:00,72.3,46.0,30.13,ENE,68,0.7,1.6,39,0.00,,,0.00,pywws,2013-05-25 15:15:00,
2013-05-25 16:20:00,71.8,46.1,30.12,SSE,158,0.7,2.2,40,0.00,,,0.00,pywws,2013-05-25 15:20:00,
2013-05-25 16:25:00,70.5,44.4,30.12,East,90,1.6,3.1,39,0.00,,,0.00,pywws,2013-05-25 15:25:00,
2013-05-25 16:30:00,70.0,45.2,30.12,SW,225,0.7,2.2,41,0.00,,,0.00,pywws,2013-05-25 15:30:00,
2013-05-25 16:35:00,68.9,46.1,30.12,North,-999,0.0,2.2,44,0.00,,,0.00,pywws,2013-05-25 15:35:00,
2013-05-25 16:40:00,68.0,44.7,30.11,East,90,1.6,3.1,43,0.00,,,0.00,pywws,2013-05-25 15:40:00,
2013-05-25 16:45:00,67.5,46.5,30.11,NW,315,0.7,2.2,47,0.00,,,0.00,pywws,2013-05-25 15:45:00,
2013-05-25 16:50:00,66.7,45.3,30.11,SE,135,0.7,2.2,46,0.00,,,0.00,pywws,2013-05-25 15:50:00,
2013-05-25 17:00:00,66.2,45.4,30.11,North,-999,0.0,0.7,47,0.00,,,0.00,pywws,2013-05-25 16:00:00,
2013-05-25 17:05:00,66.0,46.3,30.11,West,270,0.7,2.2,49,0.00,,,0.00,pywws,2013-05-25 16:05:00,
2013-05-25 17:10:00,65.8,46.7,30.11,NW,315,0.7,2.2,50,0.00,,,0.00,pywws,2013-05-25 16:10:00,
2013-05-25 17:15:00,65.5,46.3,30.11,NE,45,0.7,1.6,50,0.00,,,0.00,pywws,2013-05-25 16:15:00,
2013-05-25 17:20:00,65.7,45.4,30.11,SW,225,2.2,5.4,48,0.00,,,0.00,pywws,2013-05-25 16:20:00,
2013-05-25 17:25:00,65.5,46.3,30.11,North,-999,0.0,1.6,50,0.00,,,0.00,pywws,2013-05-25 16:25:00,
2013-05-25 17:30:00,65.5,46.3,30.11,SE,135,0.7,2.2,50,0.00,,,0.00,pywws,2013-05-25 16:30:00,
2013-05-25 17:35:00,65.1,46.0,30.11,North,-999,0.0,2.2,50,0.00,,,0.00,pywws,2013-05-25 16:35:00,
2013-05-25 17:40:00,64.6,45.5,30.11,East,90,1.6,2.2,50,0.00,,,0.00,pywws,2013-05-25 16:40:00,
2013-05-25 17:45:00,64.2,45.7,30.11,North,-999,0.0,1.6,51,0.00,,,0.00,pywws,2013-05-25 16:45:00,
2013-05-25 17:50:00,64.6,46.0,30.11,NE,45,0.7,2.2,51,0.00,,,0.00,pywws,2013-05-25 16:50:00,
2013-05-25 18:00:00,65.3,46.2,30.11,North,-999,0.0,1.6,50,0.00,,,0.00,pywws,2013-05-25 17:00:00,
2013-05-25 18:05:00,66.4,46.6,30.11,SE,135,0.7,3.1,49,0.00,,,0.00,pywws,2013-05-25 17:05:00,
2013-05-25 18:10:00,66.4,46.1,30.11,SE,135,0.7,2.2,48,0.00,,,0.00,pywws,2013-05-25 17:10:00,
2013-05-25 18:15:00,66.4,46.1,30.11,North,-999,0.0,1.6,48,0.00,,,0.00,pywws,2013-05-25 17:15:00,
2013-05-25 18:20:00,66.9,46.0,30.11,SE,135,0.7,3.1,47,0.00,,,0.00,pywws,2013-05-25 17:20:00,
2013-05-25 18:25:00,66.7,46.4,30.11,North,-999,0.0,1.6,48,0.00,,,0.00,pywws,2013-05-25 17:25:00,
2013-05-25 18:30:00,66.6,45.1,30.12,East,90,0.7,3.1,46,0.00,,,0.00,pywws,2013-05-25 17:30:00,
2013-05-25 18:35:00,64.8,44.1,30.12,ENE,68,1.6,3.8,47,0.00,,,0.00,pywws,2013-05-25 17:35:00,
2013-05-25 18:40:00,63.3,44.9,30.12,NE,45,0.7,3.1,51,0.00,,,0.00,pywws,2013-05-25 17:40:00,
2013-05-25 18:45:00,62.6,44.2,30.12,East,90,1.6,2.2,51,0.00,,,0.00,pywws,2013-05-25 17:45:00,
2013-05-25 18:50:00,62.1,44.2,30.12,NE,45,0.7,1.6,52,0.00,,,0.00,pywws,2013-05-25 17:50:00,
2013-05-25 19:00:00,62.2,44.4,30.12,SE,135,0.7,2.2,52,0.00,,,0.00,pywws,2013-05-25 18:00:00,
2013-05-25 19:05:00,61.2,43.4,30.12,East,90,0.7,2.2,52,0.00,,,0.00,pywws,2013-05-25 18:05:00,
2013-05-25 19:10:00,60.8,42.6,30.12,NE,45,1.6,4.5,51,0.00,,,0.00,pywws,2013-05-25 18:10:00,
2013-05-25 19:15:00,60.8,42.6,30.12,NE,45,0.7,1.6,51,0.00,,,0.00,pywws,2013-05-25 18:15:00,
2013-05-25 19:20:00,60.6,43.4,30.11,SE,135,0.7,2.2,53,0.00,,,0.00,pywws,2013-05-25 18:20:00,
2013-05-25 19:25:00,60.4,41.7,30.13,NE,45,1.6,3.8,50,0.00,,,0.00,pywws,2013-05-25 18:25:00,
2013-05-25 19:30:00,60.4,40.7,30.12,East,90,1.6,3.1,48,0.00,,,0.00,pywws,2013-05-25 18:30:00,
2013-05-25 19:35:00,60.1,40.9,30.13,NW,315,0.7,2.2,49,0.00,,,0.00,pywws,2013-05-25 18:35:00,
2013-05-25 19:40:00,59.7,40.5,30.12,North,0,1.6,2.2,49,0.00,,,0.00,pywws,2013-05-25 18:40:00,
2013-05-25 19:45:00,60.1,39.8,30.12,SE,135,0.7,1.6,47,0.00,,,0.00,pywws,2013-05-25 18:45:00,
2013-05-25 19:50:00,60.4,39.0,30.13,North,0,0.7,2.2,45,0.00,,,0.00,pywws,2013-05-25 18:50:00,
2013-05-25 20:00:00,59.9,39.1,30.13,North,-999,0.0,1.6,46,0.00,,,0.00,pywws,2013-05-25 19:00:00,
2013-05-25 20:05:00,59.7,37.8,30.13,West,270,0.7,2.2,44,0.00,,,0.00,pywws,2013-05-25 19:05:00,
2013-05-25 20:10:00,59.2,37.9,30.12,North,-999,0.0,1.6,45,0.00,,,0.00,pywws,2013-05-25 19:10:00,
2013-05-25 20:15:00,59.2,38.4,30.13,North,0,0.7,2.2,46,0.00,,,0.00,pywws,2013-05-25 19:15:00,
2013-05-25 20:20:00,59.0,38.2,30.13,North,-999,0.0,0.7,46,0.00,,,0.00,pywws,2013-05-25 19:20:00,
2013-05-25 20:25:00,58.3,38.1,30.13,NNW,338,0.7,2.2,47,0.00,,,0.00,pywws,2013-05-25 19:25:00,
2013-05-25 20:30:00,57.6,38.0,30.13,West,270,0.7,1.6,48,0.00,,,0.00,pywws,2013-05-25 19:30:00,
2013-05-25 20:35:00,57.0,38.6,30.13,North,-999,0.0,1.6,50,0.00,,,0.00,pywws,2013-05-25 19:35:00,
2013-05-25 20:40:00,56.5,38.6,30.13,North,-999,0.0,1.6,51,0.00,,,0.00,pywws,2013-05-25 19:40:00,
2013-05-25 20:45:00,56.1,39.2,30.14,North,-999,0.0,0.7,53,0.00,,,0.00,pywws,2013-05-25 19:45:00,
2013-05-25 20:50:00,55.8,39.4,30.13,North,-999,0.0,0.7,54,0.00,,,0.00,pywws,2013-05-25 19:50:00,
2013-05-25 21:00:00,55.6,40.1,30.13,North,0,0.7,2.2,56,0.00,,,0.00,pywws,2013-05-25 20:00:00,
2013-05-25 21:05:00,55.0,40.5,30.14,North,-999,0.0,0.7,58,0.00,,,0.00,pywws,2013-05-25 20:05:00,
2013-05-25 21:10:00,54.7,41.1,30.14,North,-999,0.0,1.6,60,0.00,,,0.00,pywws,2013-05-25 20:10:00,
2013-05-25 21:15:00,54.3,40.7,30.13,North,-999,0.0,1.6,60,0.00,,,0.00,pywws,2013-05-25 20:15:00,
2013-05-25 21:20:00,54.0,40.8,30.14,North,-999,0.0,1.6,61,0.00,,,0.00,pywws,2013-05-25 20:20:00,
2013-05-25 21:25:00,53.8,40.7,30.13,North,-999,0.0,0.0,61,0.00,,,0.00,pywws,2013-05-25 20:25:00,
2013-05-25 21:30:00,53.2,41.0,30.13,North,-999,0.0,0.7,63,0.00,,,0.00,pywws,2013-05-25 20:30:00,
2013-05-25 21:35:00,52.9,41.0,30.14,North,-999,0.0,0.7,64,0.00,,,0.00,pywws,2013-05-25 20:35:00,
2013-05-25 21:40:00,52.3,40.9,30.14,North,-999,0.0,0.0,65,0.00,,,0.00,pywws,2013-05-25 20:40:00,
2013-05-25 21:45:00,52.0,41.0,30.14,North,-999,0.0,0.7,66,0.00,,,0.00,pywws,2013-05-25 20:45:00,
2013-05-25 21:50:00,51.6,41.4,30.14,North,-999,0.0,1.6,68,0.00,,,0.00,pywws,2013-05-25 20:50:00,
2013-05-25 22:00:00,51.6,41.8,30.14,North,-999,0.0,1.6,69,0.00,,,0.00,pywws,2013-05-25 21:00:00,
2013-05-25 22:05:00,51.6,41.4,30.14,North,-999,0.0,0.0,68,0.00,,,0.00,pywws,2013-05-25 21:05:00,
2013-05-25 22:10:00,51.4,41.6,30.14,North,-999,0.0,0.7,69,0.00,,,0.00,pywws,2013-05-25 21:10:00,
2013-05-25 22:15:00,51.3,41.4,30.14,North,-999,0.0,0.7,69,0.00,,,0.00,pywws,2013-05-25 21:15:00,
2013-05-25 22:20:00,51.1,41.6,30.14,North,-999,0.0,1.6,70,0.00,,,0.00,pywws,2013-05-25 21:20:00,
2013-05-25 22:25:00,51.1,42.0,30.14,North,-999,0.0,1.6,71,0.00,,,0.00,pywws,2013-05-25 21:25:00,
2013-05-25 22:30:00,50.9,41.8,30.14,North,-999,0.0,0.7,71,0.00,,,0.00,pywws,2013-05-25 21:30:00,
2013-05-25 22:35:00,50.5,41.9,30.14,North,-999,0.0,0.7,72,0.00,,,0.00,pywws,2013-05-25 21:35:00,
2013-05-25 22:40:00,50.4,42.0,30.14,North,0,0.7,1.6,73,0.00,,,0.00,pywws,2013-05-25 21:40:00,
2013-05-25 22:45:00,50.4,42.0,30.14,North,-999,0.0,1.6,73,0.00,,,0.00,pywws,2013-05-25 21:45:00,
2013-05-25 22:50:00,50.2,42.2,30.14,North,-999,0.0,1.6,74,0.00,,,0.00,pywws,2013-05-25 21:50:00,
2013-05-25 23:00:00,50.0,42.0,30.14,North,-999,0.0,0.7,74,0.00,,,0.00,pywws,2013-05-25 22:00:00,
2013-05-25 23:05:00,49.1,41.2,30.14,North,-999,0.0,0.0,74,0.00,,,0.00,pywws,2013-05-25 22:05:00,
2013-05-25 23:10:00,48.6,40.7,30.15,North,-999,0.0,0.0,74,0.00,,,0.00,pywws,2013-05-25 22:10:00,
2013-05-25 23:15:00,48.0,40.8,30.14,North,-999,0.0,1.6,76,0.00,,,0.00,pywws,2013-05-25 22:15:00,
2013-05-25 23:20:00,47.8,41.3,30.14,North,-999,0.0,0.0,78,0.00,,,0.00,pywws,2013-05-25 22:20:00,
2013-05-25 23:25:00,47.7,40.8,30.14,North,-999,0.0,0.0,77,0.00,,,0.00,pywws,2013-05-25 22:25:00,
2013-05-25 23:30:00,47.3,40.8,30.14,North,-999,0.0,0.0,78,0.00,,,0.00,pywws,2013-05-25 22:30:00,
2013-05-25 23:35:00,46.9,40.4,30.14,North,-999,0.0,0.0,78,0.00,,,0.00,pywws,2013-05-25 22:35:00,
2013-05-25 23:40:00,46.8,40.3,30.14,North,-999,0.0,0.0,78,0.00,,,0.00,pywws,2013-05-25 22:40:00,
2013-05-25 23:45:00,46.4,40.2,30.14,North,-999,0.0,0.0,79,0.00,,,0.00,pywws,2013-05-25 22:45:00,
2013-05-25 23:50:00,46.0,40.2,30.15,North,-999,0.0,0.0,80,0.00,,,0.00,pywws,2013-05-25 22:50:00,